Zim Panama — VSWW5 — position and weather

sailwx.info

Track history (hours):
 
Tides and Currents Weather Stations Pressure Air Temp Water Temp Dewpoint Dewpoint Depression Visibility Wind Speed Wind Dir Waves Ship Positions

Zim Panama

Last reported at 2014-Aug-21 07:33 UTC. Time now 2014-Aug-21 08:16 UTC.
Position N 32°23' E 029°41'.

Length 294.12 m; beam 32.2 m; draft 9.45 m.

Type: Ship (hazmat cat C). MMSI: 235474000.

Date/timePositionNaut miles runAvg speedWind from/ knotsBaromVisibWave heightAir tempDewpointWater temp
2014-Aug-21 07:33N 32°23' E 029°41'1818.3
2014-Aug-21 06:33N 32°30' E 029°21'70618.6
2014-Aug-19 16:32N 36°03' E 015°46'1818.7
2014-Aug-19 15:33N 36°08' E 015°25'1918.6
2014-Aug-19 14:33N 36°14' E 015°03'1918.6
2014-Aug-19 13:33N 36°20' E 014°41'2018.7
2014-Aug-19 12:29N 36°25' E 014°17'1718.9
2014-Aug-19 11:33N 36°31' E 013°56'1919.1
2014-Aug-19 10:33N 36°36' E 013°33'1919.2
2014-Aug-19 09:33N 36°42' E 013°11'1919.1
2014-Aug-19 08:33N 36°49' E 012°48'1918.8
2014-Aug-19 07:33N 36°54' E 012°26'1918.6
2014-Aug-19 06:33N 36°60' E 012°04'7518.8
2014-Aug-19 02:33N 37°29' E 010°37'1919.4
2014-Aug-19 01:33N 37°33' E 010°13'2419.6
2014-Aug-19 00:20N 37°30' E 009°43'3519.4
2014-Aug-18 22:32N 37°20' E 009°01'1919.0
2014-Aug-18 21:33N 37°16' E 008°38'2119.9
2014-Aug-18 20:29N 37°16' E 008°11'1818.9
2014-Aug-18 19:30N 37°16' E 007°48'17218.6
2014-Aug-18 10:17N 37°04' E 004°12'3319.0
2014-Aug-18 08:33N 37°03' E 003°31'2518.9
2014-Aug-18 07:14N 36°60' E 003°00'1718.4
2014-Aug-18 06:18N 36°57' E 002°39'57918.7
2014-Aug-16 23:20N 36°21' W 009°21'1519.5
2014-Aug-16 22:33N 36°24' W 009°40'2019.3
2014-Aug-16 21:29N 36°27' W 010°05'65918.7
2014-Aug-15 10:16N 37°31' W 023°46'1318.5
2014-Aug-15 09:33N 37°32' W 024°03'1818.4
2014-Aug-15 08:34N 37°32' W 024°25'1919.1
2014-Aug-15 07:34N 37°33' W 024°50'1918.5
2014-Aug-15 06:34N 37°33' W 025°13'1919.0
2014-Aug-15 05:34N 37°33' W 025°37'1918.6
2014-Aug-15 04:34N 37°33' W 026°00'1919.2
2014-Aug-15 03:33N 37°32' W 026°25'1919.1
2014-Aug-15 02:34N 37°32' W 026°49'1919.1
2014-Aug-15 01:33N 37°32' W 027°13'1818.4
2014-Aug-15 00:33N 37°31' W 027°36'1918.9
2014-Aug-14 23:33N 37°31' W 027°60'1818.5
2014-Aug-14 22:33N 37°31' W 028°23'1918.8
2014-Aug-14 21:33N 37°31' W 028°47'1918.6
2014-Aug-14 20:33N 37°30' W 029°10'1918.9
2014-Aug-14 19:33N 37°30' W 029°34'1818.1
2014-Aug-14 18:34N 37°30' W 029°57'1818.3
2014-Aug-14 17:33N 37°29' W 030°20'2218.6
2014-Aug-14 16:23N 37°27' W 030°47'1718.8
2014-Aug-14 15:29N 37°26' W 031°08'  
Track history (hours):
 
Tides and Currents Weather Stations Pressure Air Temp Water Temp Dewpoint Dewpoint Depression Visibility Wind Speed Wind Dir Waves Ship Positions

Zim Panama

Last reported at 2014-Aug-21 07:33 UTC. Time now 2014-Aug-21 08:16 UTC.
Position N 32°23' E 029°41'.

Length 294.12 m; beam 32.2 m; draft 9.45 m.

Type: Ship (hazmat cat C). MMSI: 235474000.

Date/timePositionNaut miles runAvg speedWind from/ knotsBaromVisibWave heightAir tempDewpointWater temp
2014-Aug-21 07:33N 32°23' E 029°41'1818.3
2014-Aug-21 06:33N 32°30' E 029°21'70618.6
2014-Aug-19 16:32N 36°03' E 015°46'1818.7
2014-Aug-19 15:33N 36°08' E 015°25'1918.6
2014-Aug-19 14:33N 36°14' E 015°03'1918.6
2014-Aug-19 13:33N 36°20' E 014°41'2018.7
2014-Aug-19 12:29N 36°25' E 014°17'1718.9
2014-Aug-19 11:33N 36°31' E 013°56'1919.1
2014-Aug-19 10:33N 36°36' E 013°33'1919.2
2014-Aug-19 09:33N 36°42' E 013°11'1919.1
2014-Aug-19 08:33N 36°49' E 012°48'1918.8
2014-Aug-19 07:33N 36°54' E 012°26'1918.6
2014-Aug-19 06:33N 36°60' E 012°04'7518.8
2014-Aug-19 02:33N 37°29' E 010°37'1919.4
2014-Aug-19 01:33N 37°33' E 010°13'2419.6
2014-Aug-19 00:20N 37°30' E 009°43'3519.4
2014-Aug-18 22:32N 37°20' E 009°01'1919.0
2014-Aug-18 21:33N 37°16' E 008°38'2119.9
2014-Aug-18 20:29N 37°16' E 008°11'1818.9
2014-Aug-18 19:30N 37°16' E 007°48'17218.6
2014-Aug-18 10:17N 37°04' E 004°12'3319.0
2014-Aug-18 08:33N 37°03' E 003°31'2518.9
2014-Aug-18 07:14N 36°60' E 003°00'1718.4
2014-Aug-18 06:18N 36°57' E 002°39'57918.7
2014-Aug-16 23:20N 36°21' W 009°21'1519.5
2014-Aug-16 22:33N 36°24' W 009°40'2019.3
2014-Aug-16 21:29N 36°27' W 010°05'65918.7
2014-Aug-15 10:16N 37°31' W 023°46'1318.5
2014-Aug-15 09:33N 37°32' W 024°03'1818.4
2014-Aug-15 08:34N 37°32' W 024°25'1919.1
2014-Aug-15 07:34N 37°33' W 024°50'1918.5
2014-Aug-15 06:34N 37°33' W 025°13'1919.0
2014-Aug-15 05:34N 37°33' W 025°37'1918.6
2014-Aug-15 04:34N 37°33' W 026°00'1919.2
2014-Aug-15 03:33N 37°32' W 026°25'1919.1
2014-Aug-15 02:34N 37°32' W 026°49'1919.1
2014-Aug-15 01:33N 37°32' W 027°13'1818.4
2014-Aug-15 00:33N 37°31' W 027°36'1918.9
2014-Aug-14 23:33N 37°31' W 027°60'1818.5
2014-Aug-14 22:33N 37°31' W 028°23'1918.8
2014-Aug-14 21:33N 37°31' W 028°47'1918.6
2014-Aug-14 20:33N 37°30' W 029°10'1918.9
2014-Aug-14 19:33N 37°30' W 029°34'1818.1
2014-Aug-14 18:34N 37°30' W 029°57'1818.3
2014-Aug-14 17:33N 37°29' W 030°20'2218.6
2014-Aug-14 16:23N 37°27' W 030°47'1718.8
2014-Aug-14 15:29N 37°26' W 031°08'  

Dump ship's entire track history